• Join FlightAware (Why Join?)
  • Login
  • US Flag 
 
08:45AM EST


 

Airport Tracker/Info


-or-


 

Live Flight TrackerFlight Track Log ✈ CSN6873 ✈ 26-Aug-2013 ✈ ZWWW / URC - ZWKC / KCA

Flight Track Log - Related Links

Times and Time Zones

All times are in EDT time to prevent confusion due to time zone crossing. See the CSN6873 flight status page for this flight to view local times or setup timezone preferences in your user account.

Time Position Orientation Groundspeed Altitude Reporting Facility
EDT Latitude Longitude Course Direction KTS MPH feet Rate Location/Type
08:41PM 43.8321 87.3087 238° Southwest  Level Estimated
08:42PM 43.7569 87.1435 238° Southwest  Level Estimated
08:43PM 43.6814 86.9788 238° Southwest  Level Estimated
08:44PM 43.6057 86.8145 238° Southwest  Level Estimated
08:45PM 43.5298 86.6506 237° Southwest  Level Estimated
08:46PM 43.4536 86.4871 237° Southwest  Level Estimated
08:47PM 43.3772 86.3240 237° Southwest  Level Estimated
08:48PM 43.3006 86.1613 237° Southwest  Level Estimated
08:49PM 43.2237 85.9991 237° Southwest  Level Estimated
08:50PM 43.1466 85.8372 237° Southwest  Level Estimated
08:51PM 43.0693 85.6758 237° Southwest  Level Estimated
08:52PM 42.9917 85.5147 237° Southwest  Level Estimated
08:53PM 42.9140 85.3541 237° Southwest  Level Estimated
08:54PM 42.8360 85.1939 236° Southwest  Level Estimated
08:55PM 42.7577 85.0341 236° Southwest  Level Estimated
08:56PM 42.6793 84.8747 236° Southwest  Level Estimated
08:57PM 42.6006 84.7157 236° Southwest  Level Estimated
08:58PM 42.5218 84.5571 236° Southwest  Level Estimated
08:59PM 42.4427 84.3988 236° Southwest  Level Estimated
09:00PM 42.3633 84.2410 236° Southwest  Level Estimated
09:01PM 42.2838 84.0836 236° Southwest  Level Estimated
09:02PM 42.2041 83.9266 236° Southwest  Level Estimated
09:03PM 42.1241 83.7700 235° Southwest  Level Estimated
09:04PM 42.0439 83.6138 235° Southwest  Level Estimated
09:05PM 41.9636 83.4579 235° Southwest  Level Estimated
09:06PM 41.8829 83.3025 235° Southwest  Level Estimated
09:07PM 41.8022 83.1475 235° Southwest  Level Estimated
09:08PM 41.7211 82.9928 235° Southwest  Level Estimated
09:09PM 41.7181 82.9869 235° Southwest  Level Estimated
09:10PM 41.7181 82.9869 143° Southeast  Level Estimated
09:11PM 41.7181 82.9869 143° Southeast  Level Estimated
09:12PM 41.7181 82.9869 143° Southeast  Level Estimated
09:13PM 41.7181 82.9869 143° Southeast  Level Estimated
09:14PM 41.7181 82.9869 143° Southeast  Level Estimated
09:15PM 41.7181 82.9869 143° Southeast  Level Estimated
09:16PM 41.7181 82.9869 143° Southeast  Level Estimated
09:17PM 41.7181 82.9869 143° Southeast  Level Estimated
09:18PM 41.7181 82.9869 143° Southeast  Level Estimated